createdAt,value
2019-04-16T00:01:47.459Z,101401.46
2019-04-16T00:04:35.606Z,101408.45
2019-04-16T00:07:07.493Z,101401.46
2019-04-16T00:09:55.701Z,101408.53
2019-04-16T00:12:27.629Z,101402.31
2019-04-16T00:15:01.879Z,101411.94
2019-04-16T00:17:32.562Z,101407.88
2019-04-16T00:20:05.668Z,101411.36
2019-04-16T00:22:39.757Z,101414.52
2019-04-16T00:25:10.386Z,101404.55
2019-04-16T00:27:40.785Z,101405.70
2019-04-16T00:30:12.481Z,101407.80
2019-04-16T00:32:43.112Z,101401.25
2019-04-16T00:35:15.689Z,101402.34
2019-04-16T00:37:46.109Z,101418.52
2019-04-16T00:40:16.900Z,101407.38
2019-04-16T00:42:47.192Z,101420.13
2019-04-16T00:45:17.662Z,101411.98
2019-04-16T00:47:51.394Z,101414.52
2019-04-16T00:50:20.300Z,101425.09
2019-04-16T00:52:50.872Z,101417.13
2019-04-16T00:55:21.524Z,101421.99
2019-04-16T00:57:52.225Z,101420.55
2019-04-16T01:00:22.518Z,101417.96
2019-04-16T01:02:52.760Z,101412.61
2019-04-16T01:05:22.984Z,101412.80
2019-04-16T01:07:53.353Z,101419.19
2019-04-16T01:10:23.915Z,101424.25
2019-04-16T01:12:54.573Z,101414.70
2019-04-16T01:15:32.062Z,101415.58
2019-04-16T01:18:04.337Z,101418.45
2019-04-16T01:20:34.482Z,101419.70
2019-04-16T01:23:05.129Z,101418.19
2019-04-16T01:25:35.452Z,101416.64
2019-04-16T01:28:17.019Z,101416.09
2019-04-16T01:31:08.267Z,101422.31
2019-04-16T01:33:47.417Z,101415.61
2019-04-16T01:36:25.320Z,101413.94
2019-04-16T01:39:15.599Z,101415.61
2019-04-16T01:41:36.520Z,101421.34
2019-04-16T01:44:06.719Z,101431.38
2019-04-16T01:46:36.962Z,101419.31
2019-04-16T01:49:10.071Z,101421.80
2019-04-16T01:51:39.102Z,101422.88
2019-04-16T01:54:09.323Z,101424.97
2019-04-16T01:56:39.554Z,101430.97
2019-04-16T01:59:09.767Z,101429.53
2019-04-16T02:01:40.299Z,101431.27
2019-04-16T02:04:13.351Z,101429.66
2019-04-16T02:06:43.989Z,101429.30
2019-04-16T02:09:22.510Z,101433.74
2019-04-16T02:11:46.545Z,101431.81
2019-04-16T02:14:20.438Z,101435.44
2019-04-16T02:16:49.269Z,101438.50
2019-04-16T02:19:19.553Z,101428.78
2019-04-16T02:21:49.806Z,101437.05
2019-04-16T02:24:20.667Z,101442.32
2019-04-16T02:26:54.631Z,101440.13
2019-04-16T02:29:23.746Z,101446.43
2019-04-16T02:31:54.038Z,101445.67
2019-04-16T02:34:25.639Z,101445.87
2019-04-16T02:37:00.514Z,101447.30
2019-04-16T02:39:47.218Z,101451.58
2019-04-16T02:42:00.503Z,101446.89
2019-04-16T02:44:31.516Z,101451.72
2019-04-16T02:47:06.371Z,101451.89
2019-04-16T02:49:34.095Z,101450.33
2019-04-16T02:52:06.129Z,101448.58
2019-04-16T02:54:39.480Z,101450.92
2019-04-16T02:57:25.802Z,101451.16
2019-04-16T02:59:53.041Z,101452.45
2019-04-16T03:02:27.855Z,101449.33
2019-04-16T03:05:08.705Z,101449.08
2019-04-16T03:07:39.059Z,101452.38
2019-04-16T03:10:13.255Z,101463.02
2019-04-16T03:12:41.653Z,101460.80
2019-04-16T03:15:12.878Z,101454.64
2019-04-16T03:17:44.577Z,101450.95
2019-04-16T03:20:20.817Z,101454.77
2019-04-16T03:22:51.359Z,101465.95
2019-04-16T03:25:23.152Z,101465.39
2019-04-16T03:27:54.407Z,101465.55
2019-04-16T03:30:25.791Z,101470.22
2019-04-16T03:32:56.149Z,101467.91
2019-04-16T03:35:26.869Z,101472.16
2019-04-16T03:37:57.693Z,101466.64
2019-04-16T03:40:27.986Z,101479.56
2019-04-16T03:43:03.965Z,101477.45
2019-04-16T03:45:32.280Z,101474.37
2019-04-16T03:48:02.668Z,101481.15
2019-04-16T03:50:33.303Z,101479.08
2019-04-16T03:53:03.943Z,101479.67
2019-04-16T03:55:34.436Z,101475.75
2019-04-16T03:58:06.113Z,101485.48
2019-04-16T04:00:36.933Z,101485.84
2019-04-16T04:03:08.278Z,101485.32
2019-04-16T04:05:38.501Z,101483.80
2019-04-16T04:08:08.741Z,101483.17
2019-04-16T04:10:42.017Z,101485.89
2019-04-16T04:13:17.267Z,101494.73
2019-04-16T04:15:46.262Z,101496.05
2019-04-16T04:18:16.860Z,101491.75
2019-04-16T04:20:50.748Z,101494.30
2019-04-16T04:23:19.906Z,101488.66
2019-04-16T04:25:50.665Z,101488.09
2019-04-16T04:28:20.967Z,101491.37
2019-04-16T04:30:51.196Z,101495.63
2019-04-16T04:33:42.627Z,101495.03
2019-04-16T04:36:11.876Z,101494.86
2019-04-16T04:38:42.123Z,101496.34
2019-04-16T04:41:12.342Z,101497.16
2019-04-16T04:43:42.972Z,101497.67
2019-04-16T04:46:15.059Z,101506.22
2019-04-16T04:48:45.335Z,101512.40
2019-04-16T04:51:15.598Z,101504.76
2019-04-16T04:53:47.570Z,101498.73
2019-04-16T04:56:19.614Z,101493.38
2019-04-16T04:58:50.284Z,101503.25
2019-04-16T05:01:20.519Z,101507.89
2019-04-16T05:03:58.400Z,101515.02
2019-04-16T05:06:36.580Z,101518.97
2019-04-16T05:09:08.174Z,101529.72
2019-04-16T05:11:38.843Z,101513.69
2019-04-16T05:14:09.475Z,101523.00
2019-04-16T05:16:40.030Z,101514.75
2019-04-16T05:19:13.845Z,101516.54
2019-04-16T05:21:44.152Z,101509.68
2019-04-16T05:24:14.368Z,101518.19
2019-04-16T05:26:44.582Z,101497.08
2019-04-16T05:29:17.429Z,101505.22
2019-04-16T05:31:47.187Z,101518.44
2019-04-16T05:34:18.332Z,101513.95
2019-04-16T05:37:01.516Z,101506.00
2019-04-16T05:39:34.936Z,101515.30
2019-04-16T05:42:05.292Z,101526.61
2019-04-16T05:44:36.096Z,101512.91
2019-04-16T05:47:06.419Z,101512.36
2019-04-16T05:49:36.648Z,101519.53
2019-04-16T05:52:07.983Z,101524.97
2019-04-16T05:54:45.743Z,101537.55
2019-04-16T05:57:26.201Z,101535.42
2019-04-16T05:59:55.618Z,101540.64
2019-04-16T06:02:42.049Z,101531.95
2019-04-16T06:05:28.129Z,101527.84
2019-04-16T06:08:25.698Z,101513.70
2019-04-16T06:10:53.837Z,101527.52
2019-04-16T06:13:28.408Z,101534.48
2019-04-16T06:15:58.884Z,101535.92
2019-04-16T06:18:38.010Z,101537.02
2019-04-16T06:21:13.444Z,101547.19
2019-04-16T06:24:03.363Z,101570.56
2019-04-16T06:26:40.379Z,101548.94
2019-04-16T06:29:15.094Z,101548.03
2019-04-16T06:31:57.167Z,101555.23
2019-04-16T06:34:31.799Z,101544.82
2019-04-16T06:37:03.706Z,101525.89
2019-04-16T06:39:47.845Z,101521.58
2019-04-16T06:42:25.874Z,101530.06
2019-04-16T06:44:58.019Z,101541.48
2019-04-16T06:47:45.211Z,101543.85
2019-04-16T06:50:32.098Z,101548.34
2019-04-16T06:53:03.080Z,101545.45
2019-04-16T06:55:37.139Z,101544.52
2019-04-16T06:58:19.593Z,101560.58
2019-04-16T07:01:07.196Z,101550.89
2019-04-16T07:03:42.670Z,101567.52
2019-04-16T07:06:29.597Z,101530.77
2019-04-16T07:09:23.799Z,101560.69
2019-04-16T07:11:54.558Z,101564.39
2019-04-16T07:14:23.602Z,101553.67
2019-04-16T07:16:54.099Z,101557.33
2019-04-16T07:19:25.326Z,101545.60
2019-04-16T07:21:55.640Z,101550.36
2019-04-16T07:24:30.169Z,101568.94
2019-04-16T07:27:24.379Z,101538.61
2019-04-16T07:30:04.907Z,101541.70
2019-04-16T07:32:32.356Z,101533.91
2019-04-16T07:35:20.948Z,101545.82
2019-04-16T07:38:11.384Z,101561.70
2019-04-16T07:40:58.269Z,101564.89
2019-04-16T07:43:46.276Z,101545.63
2019-04-16T07:46:27.527Z,101547.28
2019-04-16T07:48:59.823Z,101541.58
2019-04-16T07:51:35.747Z,101537.97
2019-04-16T07:54:21.718Z,101530.04
2019-04-16T07:56:53.634Z,101527.78
2019-04-16T07:59:24.899Z,101536.08
2019-04-16T08:01:55.793Z,101545.91
2019-04-16T08:04:29.249Z,101533.49
2019-04-16T08:06:59.342Z,101519.06
2019-04-16T08:09:33.582Z,101537.30
2019-04-16T08:12:03.036Z,101521.36
2019-04-16T08:14:33.302Z,101528.27
2019-04-16T08:17:03.727Z,101491.27
2019-04-16T08:19:37.053Z,101533.23
2019-04-16T08:22:07.627Z,101528.36
2019-04-16T08:24:42.118Z,101534.19
2019-04-16T08:27:17.943Z,101516.84
2019-04-16T08:29:45.412Z,101522.48
2019-04-16T08:32:16.275Z,101526.21
2019-04-16T08:34:48.739Z,101543.82
2019-04-16T08:37:20.095Z,101464.77
2019-04-16T08:39:52.315Z,101520.75
2019-04-16T08:42:25.227Z,101529.26
2019-04-16T08:44:55.322Z,101513.91
2019-04-16T08:47:27.636Z,101523.20
2019-04-16T08:49:57.887Z,101489.20
2019-04-16T08:52:28.094Z,101483.49
2019-04-16T08:54:58.312Z,101494.34
2019-04-16T08:57:32.066Z,101481.81
2019-04-16T09:00:01.964Z,101489.55
2019-04-16T09:02:33.407Z,101490.11
2019-04-16T09:05:06.535Z,101471.96
2019-04-16T09:07:39.852Z,101481.70
2019-04-16T09:10:18.119Z,101498.95
2019-04-16T09:13:02.042Z,101512.48
2019-04-16T09:15:20.741Z,101496.02
2019-04-16T09:17:53.950Z,101468.94
2019-04-16T09:20:25.866Z,101472.91
2019-04-16T09:22:58.834Z,101469.34
2019-04-16T09:25:35.393Z,101480.12
2019-04-16T09:28:17.662Z,101474.09
2019-04-16T09:30:49.692Z,101471.44
2019-04-16T09:33:20.539Z,101483.47
2019-04-16T09:36:04.768Z,101464.66
2019-04-16T09:38:45.138Z,101470.36
2019-04-16T09:41:31.818Z,101450.12
2019-04-16T09:44:03.681Z,101464.43
2019-04-16T09:46:50.294Z,101467.45
2019-04-16T09:49:06.238Z,101447.18
2019-04-16T09:51:37.857Z,101400.09
2019-04-16T09:54:12.519Z,101461.94
2019-04-16T09:56:40.360Z,101460.77
2019-04-16T09:59:15.744Z,101433.59
2019-04-16T10:01:48.554Z,101425.31
2019-04-16T10:04:20.287Z,101427.54
2019-04-16T10:06:52.567Z,101446.14
2019-04-16T10:09:23.228Z,101442.09
2019-04-16T10:11:57.233Z,101437.41
2019-04-16T10:14:27.800Z,101433.78
2019-04-16T10:16:58.071Z,101444.42
2019-04-16T10:19:28.363Z,101413.02
2019-04-16T10:21:58.575Z,101411.94
2019-04-16T10:24:46.849Z,101423.36
2019-04-16T10:27:19.128Z,101424.98
2019-04-16T10:29:49.445Z,101426.59
2019-04-16T10:32:19.665Z,101428.83
2019-04-16T10:34:50.302Z,101412.58
2019-04-16T10:37:20.992Z,101403.26
2019-04-16T10:39:53.033Z,101398.59
2019-04-16T10:42:30.683Z,101409.03
2019-04-16T10:45:18.960Z,101412.78
2019-04-16T10:47:49.348Z,101411.11
2019-04-16T10:50:39.815Z,101403.75
2019-04-16T10:53:26.316Z,101399.34
2019-04-16T10:56:14.267Z,101373.41
2019-04-16T10:58:55.447Z,101386.12
2019-04-16T11:01:30.377Z,101384.80
2019-04-16T11:04:00.958Z,101386.94
2019-04-16T11:06:35.326Z,101381.67
2019-04-16T11:09:07.518Z,101374.52
2019-04-16T11:11:37.776Z,101375.11
2019-04-16T11:14:08.574Z,101381.56
2019-04-16T11:16:40.849Z,101379.66
2019-04-16T11:19:11.687Z,101375.70
2019-04-16T11:21:41.929Z,101379.95
2019-04-16T11:24:12.183Z,101376.36
2019-04-16T11:26:44.511Z,101379.34
2019-04-16T11:29:14.962Z,101381.06
2019-04-16T11:31:45.559Z,101382.42
2019-04-16T11:34:15.912Z,101377.16
2019-04-16T11:36:47.040Z,101369.52
2019-04-16T11:39:17.343Z,101370.69
2019-04-16T11:41:47.635Z,101377.84
2019-04-16T11:44:18.054Z,101375.33
2019-04-16T11:46:48.608Z,101375.33
2019-04-16T11:49:18.956Z,101365.30
2019-04-16T11:51:49.672Z,101386.59
2019-04-16T11:54:19.961Z,101380.20
2019-04-16T11:56:50.187Z,101383.78
2019-04-16T11:59:20.458Z,101377.13
2019-04-16T12:02:01.577Z,101384.05
2019-04-16T12:04:39.657Z,101385.58
2019-04-16T12:07:25.358Z,101381.20
2019-04-16T12:10:13.287Z,101378.16
2019-04-16T12:12:51.196Z,101381.88
2019-04-16T12:15:27.014Z,101369.30
2019-04-16T12:18:07.821Z,101373.91
2019-04-16T12:20:54.752Z,101360.57
2019-04-16T12:23:36.054Z,101358.27
2019-04-16T12:26:24.462Z,101350.83
2019-04-16T12:28:56.319Z,101352.61
2019-04-16T12:31:38.478Z,101351.70
2019-04-16T12:34:13.496Z,101352.12
2019-04-16T12:36:50.628Z,101348.94
2019-04-16T12:39:36.005Z,101337.40
2019-04-16T12:42:10.940Z,101344.80
2019-04-16T12:44:45.583Z,101338.91
2019-04-16T12:47:20.073Z,101339.61
2019-04-16T12:49:55.467Z,101341.24
2019-04-16T12:52:41.141Z,101337.88
2019-04-16T12:55:23.692Z,101337.02
2019-04-16T12:57:59.011Z,101339.65
2019-04-16T13:00:40.664Z,101338.30
2019-04-16T13:03:18.269Z,101338.72
2019-04-16T13:05:50.937Z,101333.50
2019-04-16T13:08:43.560Z,101328.14
2019-04-16T13:11:15.887Z,101338.94
2019-04-16T13:14:03.689Z,101331.39
2019-04-16T13:16:46.090Z,101339.89
2019-04-16T13:19:34.543Z,101330.70
2019-04-16T13:22:07.526Z,101344.66
2019-04-16T13:24:57.590Z,101335.39
2019-04-16T13:27:32.846Z,101345.72
2019-04-16T13:30:05.261Z,101338.66
2019-04-16T13:32:35.578Z,101339.73
2019-04-16T13:35:08.347Z,101341.97
2019-04-16T13:37:38.598Z,101345.91
2019-04-16T13:40:14.352Z,101332.59
2019-04-16T13:42:46.598Z,101341.56
2019-04-16T13:45:25.590Z,101344.38
2019-04-16T13:47:55.862Z,101338.91
2019-04-16T13:50:42.990Z,101346.88
2019-04-16T13:53:28.971Z,101354.77
2019-04-16T13:56:18.828Z,101344.84
2019-04-16T13:58:51.136Z,101342.77
2019-04-16T14:01:25.889Z,101336.72
2019-04-16T14:03:57.066Z,101343.20
2019-04-16T14:06:27.910Z,101344.91
2019-04-16T14:08:58.242Z,101338.05
2019-04-16T14:11:28.521Z,101337.20
2019-04-16T14:13:58.765Z,101338.41
2019-04-16T14:16:28.999Z,101339.21
2019-04-16T14:19:02.559Z,101338.37
2019-04-16T14:21:31.288Z,101333.62
2019-04-16T14:24:01.519Z,101339.81
2019-04-16T14:26:33.921Z,101335.83
2019-04-16T14:29:07.878Z,101340.12
2019-04-16T14:31:40.259Z,101344.88
2019-04-16T14:34:13.932Z,101355.70
2019-04-16T14:36:44.549Z,101343.02
2019-04-16T14:39:16.927Z,101336.89
2019-04-16T14:41:49.924Z,101339.93
2019-04-16T14:44:20.857Z,101345.92
2019-04-16T14:46:51.195Z,101337.82
2019-04-16T14:49:21.446Z,101343.89
2019-04-16T14:51:51.700Z,101340.00
2019-04-16T14:54:23.744Z,101332.96
2019-04-16T14:56:55.623Z,101338.65
2019-04-16T14:59:35.269Z,101340.93
2019-04-16T15:02:04.424Z,101346.11
2019-04-16T15:04:36.305Z,101339.50
2019-04-16T15:07:08.538Z,101345.55
2019-04-16T15:09:47.105Z,101348.92
2019-04-16T15:12:35.736Z,101346.28
2019-04-16T15:15:26.793Z,101352.23
2019-04-16T15:18:14.244Z,101344.78
2019-04-16T15:20:52.453Z,101347.34
2019-04-16T15:23:27.145Z,101352.38
2019-04-16T15:26:17.049Z,101352.37
2019-04-16T15:28:52.009Z,101347.56
2019-04-16T15:31:24.313Z,101351.47
2019-04-16T15:33:59.784Z,101347.55
2019-04-16T15:36:31.798Z,101353.19
2019-04-16T15:39:09.223Z,101350.16
2019-04-16T15:41:57.349Z,101359.73
2019-04-16T15:44:32.104Z,101349.34
2019-04-16T15:47:13.942Z,101348.03
2019-04-16T15:49:49.313Z,101351.13
2019-04-16T15:52:22.263Z,101356.00
2019-04-16T15:54:54.573Z,101343.48
2019-04-16T15:57:46.219Z,101345.72
2019-04-16T16:00:19.450Z,101347.45
2019-04-16T16:03:08.113Z,101348.67
2019-04-16T16:05:40.411Z,101348.33
2019-04-16T16:08:22.343Z,101347.48
2019-04-16T16:10:57.544Z,101341.45
2019-04-16T16:13:28.175Z,101343.62
2019-04-16T16:15:58.440Z,101346.73
2019-04-16T16:18:28.685Z,101351.11
2019-04-16T16:20:59.168Z,101346.74
2019-04-16T16:23:34.098Z,101355.87
2019-04-16T16:26:02.514Z,101358.47
2019-04-16T16:28:33.124Z,101375.83
2019-04-16T16:31:03.969Z,101367.17
2019-04-16T16:33:34.292Z,101365.91
2019-04-16T16:36:06.542Z,101375.10
2019-04-16T16:38:36.842Z,101369.45
2019-04-16T16:41:07.566Z,101368.54
2019-04-16T16:43:39.155Z,101374.66
2019-04-16T16:46:13.493Z,101374.59
2019-04-16T16:48:43.414Z,101365.45
2019-04-16T16:51:14.757Z,101361.98
2019-04-16T16:54:02.570Z,101366.33
2019-04-16T16:56:43.221Z,101364.59
2019-04-16T16:59:30.396Z,101369.39
2019-04-16T17:02:20.326Z,101369.89
2019-04-16T17:04:55.173Z,101374.26
2019-04-16T17:07:25.519Z,101370.81
2019-04-16T17:09:55.861Z,101377.37
2019-04-16T17:12:26.100Z,101375.66
2019-04-16T17:14:56.725Z,101377.41
2019-04-16T17:17:27.076Z,101382.66
2019-04-16T17:19:57.362Z,101383.52
2019-04-16T17:22:27.637Z,101386.16
2019-04-16T17:24:57.954Z,101384.88
2019-04-16T17:27:28.260Z,101382.71
2019-04-16T17:29:58.561Z,101390.98
2019-04-16T17:32:29.300Z,101389.30
2019-04-16T17:34:59.717Z,101392.78
2019-04-16T17:37:31.465Z,101398.44
2019-04-16T17:40:03.362Z,101395.41
2019-04-16T17:42:37.663Z,101399.34
2019-04-16T17:45:25.302Z,101401.97
2019-04-16T17:48:13.293Z,101400.25
2019-04-16T17:51:02.295Z,101398.52
2019-04-16T17:53:34.193Z,101392.45
2019-04-16T17:56:22.351Z,101395.95
2019-04-16T17:58:57.211Z,101391.62
2019-04-16T18:01:46.028Z,101401.62
2019-04-16T18:04:19.268Z,101403.81
2019-04-16T18:06:57.478Z,101405.55
2019-04-16T18:09:36.661Z,101408.14
2019-04-16T18:12:16.976Z,101405.97
2019-04-16T18:14:59.664Z,101397.78
2019-04-16T18:17:47.217Z,101387.80
2019-04-16T18:20:33.362Z,101377.81
2019-04-16T18:23:12.138Z,101371.74
2019-04-16T18:25:57.683Z,101363.94
2019-04-16T18:28:38.298Z,101368.28
2019-04-16T18:31:16.236Z,101374.31
2019-04-16T18:33:57.008Z,101396.91
2019-04-16T18:36:35.187Z,101397.80
2019-04-16T18:39:07.563Z,101392.63
2019-04-16T18:41:44.445Z,101395.23
2019-04-16T18:44:19.230Z,101396.11
2019-04-16T18:47:05.063Z,101380.93
2019-04-16T18:49:36.990Z,101389.17
2019-04-16T18:52:07.539Z,101396.98
2019-04-16T18:54:37.843Z,101398.73
2019-04-16T18:57:08.773Z,101403.08
2019-04-16T18:59:39.021Z,101402.22
2019-04-16T19:02:10.811Z,101405.26
2019-04-16T19:04:41.050Z,101405.69
2019-04-16T19:07:11.298Z,101403.96
2019-04-16T19:09:41.566Z,101404.00
2019-04-16T19:12:12.390Z,101414.36
2019-04-16T19:14:44.323Z,101398.75
2019-04-16T19:17:16.706Z,101387.45
2019-04-16T19:19:46.959Z,101379.22
2019-04-16T19:22:17.619Z,101369.67
2019-04-16T19:24:47.953Z,101371.86
2019-04-16T19:27:18.223Z,101374.45
2019-04-16T19:29:48.491Z,101381.41
2019-04-16T19:32:18.737Z,101375.33
2019-04-16T19:34:49.042Z,101364.49
2019-04-16T19:37:19.722Z,101365.83
2019-04-16T19:39:50.056Z,101362.37
2019-04-16T19:42:20.687Z,101350.25
2019-04-16T19:44:51.002Z,101360.65
2019-04-16T19:47:23.303Z,101361.53
2019-04-16T19:49:53.216Z,101357.20
2019-04-16T19:52:23.842Z,101356.77
2019-04-16T19:54:54.139Z,101348.11
2019-04-16T19:57:24.386Z,101348.53
2019-04-16T19:59:55.095Z,101345.94
2019-04-16T20:02:25.824Z,101347.67
2019-04-16T20:04:56.160Z,101348.54
2019-04-16T20:07:32.894Z,101349.41
2019-04-16T20:10:03.172Z,101349.41
2019-04-16T20:12:35.138Z,101348.10
2019-04-16T20:15:09.385Z,101345.07
2019-04-16T20:17:39.006Z,101347.67
2019-04-16T20:20:09.618Z,101343.33
2019-04-16T20:22:40.809Z,101342.03
2019-04-16T20:25:11.557Z,101343.34
2019-04-16T20:27:41.974Z,101339.88
2019-04-16T20:30:14.080Z,101339.00
2019-04-16T20:32:44.420Z,101333.36
2019-04-16T20:35:17.895Z,101335.53
2019-04-16T20:37:46.649Z,101331.20
2019-04-16T20:40:17.819Z,101326.86
2019-04-16T20:42:49.330Z,101338.55
2019-04-16T20:45:21.268Z,101321.66
2019-04-16T20:47:51.593Z,101330.33
2019-04-16T20:50:23.619Z,101326.00
2019-04-16T20:52:53.860Z,101324.70
2019-04-16T20:55:24.449Z,101326.44
2019-04-16T20:57:55.296Z,101326.00
2019-04-16T21:00:32.659Z,101325.57
2019-04-16T21:03:03.815Z,101328.60
2019-04-16T21:05:36.575Z,101330.77
2019-04-16T21:08:08.562Z,101326.05
2019-04-16T21:10:40.066Z,101328.64
2019-04-16T21:13:10.262Z,101328.65
2019-04-16T21:15:40.567Z,101321.72
2019-04-16T21:18:12.155Z,101322.58
2019-04-16T21:20:44.762Z,101317.39
2019-04-16T21:23:15.032Z,101325.19
2019-04-16T21:25:46.727Z,101325.19
2019-04-16T21:28:27.253Z,101326.92
2019-04-16T21:30:59.505Z,101319.98
2019-04-16T21:33:34.608Z,101319.98
2019-04-16T21:36:06.537Z,101314.36
2019-04-16T21:38:50.126Z,101311.35
2019-04-16T21:41:20.384Z,101313.91
2019-04-16T21:43:50.624Z,101318.65
2019-04-16T21:46:21.186Z,101315.59
2019-04-16T21:48:52.019Z,101316.91
2019-04-16T21:51:24.310Z,101309.95
2019-04-16T21:53:57.359Z,101311.63
2019-04-16T21:56:27.384Z,101306.84
2019-04-16T21:58:58.084Z,101312.89
2019-04-16T22:01:32.773Z,101304.20
2019-04-16T22:04:14.379Z,101306.34
2019-04-16T22:06:45.453Z,101299.38
2019-04-16T22:09:15.748Z,101305.00
2019-04-16T22:11:46.091Z,101296.80
2019-04-16T22:14:22.031Z,101297.25
2019-04-16T22:16:48.721Z,101306.75
2019-04-16T22:19:19.305Z,101304.58
2019-04-16T22:21:49.671Z,101302.40
2019-04-16T22:24:22.901Z,101298.48
2019-04-16T22:26:52.673Z,101299.79
2019-04-16T22:29:23.370Z,101304.13
2019-04-16T22:31:57.109Z,101298.52
2019-04-16T22:34:26.765Z,101295.08
2019-04-16T22:36:57.152Z,101298.54
2019-04-16T22:39:31.810Z,101304.59
2019-04-16T22:42:20.162Z,101298.09
2019-04-16T22:44:50.546Z,101296.77
2019-04-16T22:47:32.621Z,101298.91
2019-04-16T22:50:14.782Z,101294.16
2019-04-16T22:52:36.105Z,101295.02
2019-04-16T22:55:06.783Z,101295.87
2019-04-16T22:57:37.882Z,101299.34
2019-04-16T23:00:12.873Z,101291.54
2019-04-16T23:02:48.087Z,101291.14
2019-04-16T23:05:16.309Z,101287.23
2019-04-16T23:07:46.650Z,101295.01
2019-04-16T23:10:17.829Z,101289.80
2019-04-16T23:12:49.270Z,101295.39
2019-04-16T23:15:19.537Z,101295.36
2019-04-16T23:17:49.757Z,101297.50
2019-04-16T23:20:29.185Z,101295.72
2019-04-16T23:22:52.258Z,101297.38
2019-04-16T23:25:26.905Z,101290.46
2019-04-16T23:27:55.150Z,101297.75
2019-04-16T23:30:25.434Z,101289.58
2019-04-16T23:32:58.996Z,101293.86
2019-04-16T23:35:28.344Z,101293.83
2019-04-16T23:38:00.909Z,101293.80
2019-04-16T23:40:30.923Z,101286.36
2019-04-16T23:43:03.226Z,101297.11
2019-04-16T23:45:33.624Z,101297.95
2019-04-16T23:48:13.968Z,101289.76
2019-04-16T23:50:45.730Z,101297.15
2019-04-16T23:53:17.740Z,101297.22
2019-04-16T23:56:05.726Z,101295.02
2019-04-16T23:58:43.602Z,101292.38
